Time;durP1;ratioP1;P1;durP2;ratioP2;P2;SDS_P1;SDS_P2;PMS_P1;PMS_P2;Temp;Humidity;BMP_temperature;BMP_pressure;BME280_temperature;BME280_humidity;BME280_pressure;Samples;Min_cycle;Max_cycle;Signal;HPM_P1;HPM_P2
2022/02/02 00:05:41;;;;;;;15.00;8.40;;;;;;;20.48;29.11;100137.33;99867;1367;61287;-82
2022/02/02 00:08:37;;;;;;;14.60;7.70;;;;;;;20.48;28.78;100129.45;99975;1366;73584;-81
2022/02/02 00:12:20;;;;;;;13.30;8.00;;;;;;;20.48;28.88;100128.55;100118;1363;75656;-86
2022/02/02 00:14:55;;;;;;;13.10;8.50;;;;;;;20.49;29.11;100128.85;100646;1356;61500;-85
2022/02/02 00:18:27;;;;;;;;;;;;;;;;;;;;;
2022/02/02 00:22:03;;;;;;;14.30;9.10;;;;;;;20.47;29.03;100121.98;101661;1343;74154;-81
2022/02/02 00:24:38;;;;;;;15.10;9.00;;;;;;;20.48;28.97;100124.23;101826;1337;75025;-86
2022/02/02 00:27:51;;;;;;;15.60;9.70;;;;;;;20.49;29.00;100130.11;101767;1341;61439;-84
2022/02/02 00:31:11;;;;;;;17.30;9.50;;;;;;;20.49;28.95;100129.36;101815;1340;61735;-84
2022/02/02 00:34:28;;;;;;;16.90;9.50;;;;;;;20.49;29.02;100124.71;101751;1342;74018;-85
2022/02/02 00:37:40;;;;;;;15.90;9.30;;;;;;;20.49;28.95;100117.56;101828;1340;74830;-79
2022/02/02 00:40:46;;;;;;;18.70;10.00;;;;;;;20.49;29.02;100115.60;101718;1340;61440;-85
2022/02/02 00:43:48;;;;;;;16.90;10.00;;;;;;;20.49;28.96;100108.11;101809;1340;61349;-82
2022/02/02 00:46:43;;;;;;;16.80;10.00;;;;;;;20.49;28.96;100102.35;101682;1345;72851;-83
2022/02/02 00:49:47;;;;;;;16.80;9.50;;;;;;;20.49;28.99;100102.53;101712;1345;73997;-83
2022/02/02 00:53:02;;;;;;;16.50;9.60;;;;;;;20.50;28.95;100099.28;101606;1346;61325;-84
2022/02/02 00:56:07;;;;;;;16.60;9.50;;;;;;;20.49;29.01;100091.10;101001;1356;61662;-82
2022/02/02 00:58:58;;;;;;;15.50;9.40;;;;;;;20.49;29.00;100087.92;100292;1358;73859;-80
2022/02/02 01:02:07;;;;;;;20.10;9.60;;;;;;;20.49;29.03;100084.91;100183;1364;77190;-81
2022/02/02 01:05:25;;;;;;;18.50;10.00;;;;;;;20.49;29.10;100086.30;100216;1364;61249;-82
2022/02/02 01:30:59;;;;;;;;;;;;;;;;;;;;;
2022/02/02 01:34:14;;;;;;;17.20;10.10;;;;;;;20.48;29.02;100042.71;101460;1348;61447;-83
2022/02/02 01:37:03;;;;;;;18.00;9.10;;;;;;;20.49;29.01;100043.25;101773;1342;72994;-88
2022/02/02 01:40:17;;;;;;;;;;;;;;;;;;;;;
2022/02/02 01:43:16;;;;;;;18.00;10.30;;;;;;;20.49;29.03;100037.86;101927;1336;61520;-85
2022/02/02 01:46:08;;;;;;;17.50;10.20;;;;;;;20.49;28.99;100035.55;101902;1340;61214;-81
2022/02/02 01:53:03;;;;;;;17.10;10.20;;;;;;;20.48;29.03;100030.06;102165;1335;73659;-84
2022/02/02 01:56:09;;;;;;;;;;;;;;;;;;;;;
2022/02/02 01:59:08;;;;;;;18.60;10.00;;;;;;;20.49;28.99;100022.70;101861;1340;61267;-80
2022/02/02 02:02:14;;;;;;;16.70;10.20;;;;;;;20.49;28.98;100021.77;101828;1339;73783;-85
2022/02/02 02:05:13;;;;;;;18.50;10.60;;;;;;;20.48;28.98;100018.80;101818;1340;74957;-83
2022/02/02 02:08:19;;;;;;;18.50;10.80;;;;;;;20.49;29.05;100017.52;101853;1339;61478;-82
2022/02/02 02:11:20;;;;;;;;;;;;;;;;;;;;;
2022/02/02 02:14:51;;;;;;;17.40;10.00;;;;;;;20.49;29.03;100014.80;101959;1334;74218;-84
2022/02/02 02:17:35;;;;;;;17.40;10.00;;;;;;;20.49;28.99;100016.08;102352;1332;75615;-88
2022/02/02 02:20:29;;;;;;;20.90;11.10;;;;;;;20.49;29.01;100022.83;102369;1332;61320;-83
2022/02/02 02:23:58;;;;;;;18.10;11.00;;;;;;;20.49;28.99;100019.30;102257;1332;61243;-84
2022/02/02 02:27:07;;;;;;;17.00;10.60;;;;;;;20.49;28.99;100022.52;102491;1329;73012;-84
2022/02/02 02:56:42;;;;;;;19.90;11.60;;;;;;;20.47;29.10;100022.98;101881;1337;76222;-81
2022/02/02 03:32:02;;;;;;;17.20;9.50;;;;;;;20.47;29.19;100020.84;102317;1333;61490;-85
2022/02/02 04:05:16;;;;;;;;;;;;;;;;;;;;;
2022/02/02 04:08:06;;;;;;;;;;;;;;;;;;;;;
2022/02/02 04:11:11;;;;;;;15.80;9.10;;;;;;;20.49;29.45;100005.16;100568;1357;61467;-83
2022/02/02 04:56:52;;;;;;;13.00;7.50;;;;;;;20.26;29.05;100014.30;101657;1344;71656;-81
2022/02/02 05:03:34;;;;;;;13.90;7.40;;;;;;;20.20;28.84;100016.54;101790;1338;61421;-86
2022/02/02 05:06:23;;;;;;;12.30;7.50;;;;;;;20.19;28.74;100016.48;101748;1337;61423;-83
2022/02/02 05:26:58;;;;;;;11.40;6.50;;;;;;;20.05;28.25;100031.84;101784;1338;75169;-77
2022/02/02 05:51:42;;;;;;;12.60;6.90;;;;;;;19.92;27.38;100027.71;101445;1340;75292;-80
2022/02/02 05:54:10;;;;;;;13.30;7.20;;;;;;;19.89;27.36;100026.89;101150;1340;61420;-79
2022/02/02 05:57:19;;;;;;;18.50;7.60;;;;;;;19.87;27.31;100021.34;101214;1340;63677;-79
2022/02/02 05:59:44;;;;;;;20.90;8.10;;;;;;;19.83;27.19;100025.04;101141;1340;73127;-79
2022/02/02 06:02:21;;;;;;;22.20;8.30;;;;;;;19.77;27.28;100028.82;101093;1337;74680;-79
2022/02/02 06:05:18;;;;;;;38.70;8.60;;;;;;;19.69;27.16;100036.05;101417;1334;61867;-79
2022/02/02 06:07:51;;;;;;;21.70;8.70;;;;;;;19.66;27.21;100036.15;101394;1334;61328;-78
2022/02/02 06:10:26;;;;;;;13.70;7.60;;;;;;;19.65;27.13;100036.05;101441;1334;73274;-79
2022/02/02 06:13:00;;;;;;;17.50;7.80;;;;;;;19.65;27.11;100033.56;101364;1335;74702;-79
2022/02/02 06:15:29;;;;;;;21.10;7.90;;;;;;;19.65;27.08;100031.54;101571;1333;61398;-79
2022/02/02 06:17:54;;;;;;;13.40;7.70;;;;;;;19.66;27.16;100031.65;101511;1333;61513;-78
2022/02/02 06:20:46;;;;;;;;;;;;;;;;;;;;;
2022/02/02 06:23:18;;;;;;;21.30;7.80;;;;;;;19.70;27.25;100033.45;103427;1314;74067;-79
2022/02/02 06:25:46;;;;;;;19.00;7.20;;;;;;;19.74;27.21;100032.69;103461;1314;61466;-79
2022/02/02 06:28:23;;;;;;;12.50;7.20;;;;;;;19.78;27.22;100026.48;103527;1314;61283;-78
2022/02/02 06:31:01;;;;;;;12.90;6.90;;;;;;;19.82;27.21;100029.00;103619;1313;72781;-78
2022/02/02 06:33:39;;;;;;;15.10;6.90;;;;;;;19.86;27.09;100030.86;103977;1314;75709;-79
2022/02/02 06:36:14;;;;;;;11.90;6.80;;;;;;;19.91;27.18;100034.58;103753;1313;61309;-79
2022/02/02 06:38:57;;;;;;;;;;;;;;;;;;;;;
2022/02/02 06:41:40;;;;;;;;;;;;;;;;;;;;;
2022/02/02 06:44:13;;;;;;;13.70;7.00;;;;;;;19.99;27.57;100032.20;103554;1313;74755;-79
2022/02/02 06:46:49;;;;;;;13.60;6.20;;;;;;;19.98;27.72;100038.49;103485;1313;61393;-79
2022/02/02 06:49:44;;;;;;;13.50;6.70;;;;;;;19.98;27.60;100036.20;103379;1313;62035;-81
2022/02/02 06:52:21;;;;;;;19.60;6.90;;;;;;;19.96;27.57;100039.39;102384;1321;74756;-79
2022/02/02 06:54:55;;;;;;;13.10;6.50;;;;;;;19.94;27.71;100038.22;102587;1319;74957;-78
2022/02/02 06:57:35;;;;;;;18.10;7.50;;;;;;;19.92;27.77;100037.73;103098;1320;61191;-79
2022/02/02 07:03:00;;;;;;;21.70;6.40;;;;;;;19.83;28.41;100025.57;102600;1318;74254;-80
2022/02/02 07:11:03;;;;;;;16.50;6.20;;;;;;;19.86;28.70;100030.10;103902;1318;60172;-79
2022/02/02 07:14:03;;;;;;;;;;;;;;;;;;;;;
2022/02/02 07:17:07;;;;;;;17.90;6.40;;;;;;;19.95;28.77;100033.04;102554;1322;74868;-78
2022/02/02 07:20:06;;;;;;;13.40;6.80;;;;;;;19.98;28.77;100035.61;102158;1326;61253;-78
2022/02/02 07:25:57;;;;;;;;;;;;;;;;;;;;;
2022/02/02 07:28:33;;;;;;;12.90;6.10;;;;;;;20.09;29.03;100027.46;101621;1332;74087;-79
2022/02/02 07:31:24;;;;;;;11.30;5.80;;;;;;;20.12;29.08;100022.92;101828;1331;61194;-79
2022/02/02 07:33:56;;;;;;;14.30;6.30;;;;;;;20.15;29.22;100023.08;101932;1331;61189;-79
2022/02/02 07:36:31;;;;;;;13.50;6.20;;;;;;;20.16;29.27;100024.53;101977;1329;72911;-79
2022/02/02 07:39:14;;;;;;;10.90;5.90;;;;;;;20.19;29.39;100025.61;101761;1331;75822;-78
2022/02/02 07:41:47;;;;;;;12.20;6.10;;;;;;;20.21;29.61;100021.15;102272;1329;61435;-79
2022/02/02 07:44:43;;;;;;;10.20;6.10;;;;;;;20.24;29.73;100019.29;101748;1328;61554;-79
2022/02/02 07:47:11;;;;;;;11.90;6.20;;;;;;;20.26;29.81;100018.36;101695;1331;73863;-78
2022/02/02 07:49:57;;;;;;;11.30;6.40;;;;;;;20.29;29.90;100015.52;101878;1331;74916;-78
2022/02/02 07:52:32;;;;;;;15.50;6.60;;;;;;;20.30;29.95;100013.29;101849;1331;61476;-80
2022/02/02 07:55:29;;;;;;;10.80;6.90;;;;;;;20.29;29.92;100012.31;101733;1327;61988;-79
2022/02/02 07:58:03;;;;;;;19.60;7.70;;;;;;;20.22;29.79;100016.76;102161;1331;71687;-79
2022/02/02 08:00:31;;;;;;;19.70;7.90;;;;;;;20.17;29.67;100022.56;101818;1331;76423;-80
2022/02/02 08:03:12;;;;;;;13.20;7.80;;;;;;;20.09;29.65;100019.58;101561;1331;61612;-79
2022/02/02 08:05:46;;;;;;;17.40;7.50;;;;;;;20.04;29.59;100022.85;103302;1325;60461;-78
2022/02/02 08:10:39;;;;;;;18.20;7.80;;;;;;;20.03;29.61;100016.11;102002;1325;61364;-80
2022/02/02 08:13:36;;;;;;;;;;;;;;;;;;;;;
2022/02/02 08:16:08;;;;;;;12.90;7.40;;;;;;;20.07;29.48;100028.31;102084;1325;61223;-81
2022/02/02 08:18:37;;;;;;;14.70;7.70;;;;;;;20.09;29.56;100025.63;102538;1325;72846;-79
2022/02/02 08:21:05;;;;;;;15.20;7.60;;;;;;;20.12;29.65;100026.70;102137;1325;75876;-78
2022/02/02 08:23:42;;;;;;;;;;;;;;;;;;;;;
2022/02/02 08:26:13;;;;;;;15.30;7.20;;;;;;;20.15;30.01;100031.06;102863;1313;61714;-79
2022/02/02 08:28:40;;;;;;;14.40;7.50;;;;;;;20.17;30.06;100024.98;103422;1313;72846;-78
2022/02/02 08:31:27;;;;;;;13.50;6.90;;;;;;;20.19;30.14;100015.42;103209;1313;75970;-79
2022/02/02 08:34:10;;;;;;;14.80;7.10;;;;;;;20.20;30.15;100002.65;103416;1314;63244;-79
2022/02/02 08:36:37;;;;;;;12.50;6.70;;;;;;;20.22;30.13;99997.49;103945;1306;61278;-82
2022/02/02 08:40:18;;;;;;;11.70;7.50;;;;;;;20.23;30.26;99997.70;103895;1306;72788;-81
2022/02/02 08:42:21;;;;;;;12.60;7.30;;;;;;;20.24;30.21;99993.92;103753;1305;73658;-80
2022/02/02 08:45:12;;;;;;;12.40;7.00;;;;;;;20.26;30.15;100001.46;103865;1308;61320;-81
2022/02/02 08:47:45;;;;;;;13.60;6.70;;;;;;;20.28;30.18;99994.54;103962;1305;62692;-79
2022/02/02 08:50:11;;;;;;;11.30;6.20;;;;;;;20.29;30.31;99994.23;103899;1305;74016;-80
2022/02/02 08:53:10;;;;;;;12.60;7.00;;;;;;;20.30;30.38;99988.77;103874;1305;73600;-82
2022/02/02 08:56:03;;;;;;;26.10;7.90;;;;;;;20.26;30.16;99991.61;103607;1307;62146;-79
2022/02/02 08:58:39;;;;;;;14.60;7.50;;;;;;;20.13;29.94;99988.05;103627;1308;61293;-79
2022/02/02 09:01:13;;;;;;;23.90;7.10;;;;;;;20.04;29.66;99986.91;103660;1308;72991;-81
2022/02/02 09:06:29;;;;;;;22.60;7.40;;;;;;;20.03;30.62;99987.54;103537;1309;61211;-78
2022/02/02 09:09:21;;;;;;;15.80;6.70;;;;;;;20.06;30.65;99994.48;103590;1308;61522;-79
2022/02/02 09:23:56;;;;;;;15.20;6.50;;;;;;;20.17;30.22;100015.80;103470;1313;72749;-77
2022/02/02 09:31:25;;;;;;;13.10;6.20;;;;;;;20.19;30.22;100015.92;103849;1307;75763;-81
2022/02/02 09:34:58;;;;;;;15.60;5.70;;;;;;;20.24;30.10;100008.77;103649;1311;72948;-79
2022/02/02 09:37:28;;;;;;;10.60;5.70;;;;;;;20.21;29.99;100004.48;103700;1311;75773;-82
2022/02/02 09:40:31;;;;;;;;;;;;;;;;;;;;;
2022/02/02 09:42:56;;;;;;;15.90;6.30;;;;;;;20.16;29.82;100004.36;103524;1313;61457;-79
2022/02/02 09:45:30;;;;;;;15.90;6.20;;;;;;;20.14;29.68;100004.05;103368;1313;72838;-81
2022/02/02 09:48:12;;;;;;;12.30;6.00;;;;;;;20.12;29.48;99998.48;103665;1311;74706;-78
2022/02/02 09:50:51;;;;;;;11.60;6.40;;;;;;;20.09;29.42;99992.98;103618;1311;62047;-79
2022/02/02 09:53:50;;;;;;;14.20;7.10;;;;;;;20.07;29.12;99992.40;103323;1311;62153;-79
2022/02/02 10:02:08;;;;;;;14.30;6.50;;;;;;;19.86;29.31;99981.58;102914;1317;62130;-78
2022/02/02 10:04:47;;;;;;;;;;;;;;;;;;;;;
2022/02/02 10:07:46;;;;;;;;;;;;;;;;;;;;;
2022/02/02 10:15:38;;;;;;;17.70;6.40;;;;;;;19.89;29.61;99970.08;101314;1331;631687;-78
2022/02/02 10:18:09;;;;;;;15.70;6.60;;;;;;;19.93;29.67;99971.71;101778;1332;61444;-79
2022/02/02 10:20:55;;;;;;;17.10;6.20;;;;;;;19.97;29.94;99969.98;102084;1331;74923;-81
2022/02/02 10:23:25;;;;;;;16.60;6.00;;;;;;;20.01;29.85;99964.34;101893;1332;61464;-79
2022/02/02 10:26:15;;;;;;;13.00;6.20;;;;;;;20.05;29.99;99963.66;101863;1334;61393;-84
2022/02/02 10:28:53;;;;;;;15.50;5.90;;;;;;;20.08;30.02;99961.73;101915;1331;73074;-84
2022/02/02 10:31:41;;;;;;;12.20;6.10;;;;;;;20.13;29.99;99961.63;102072;1331;75631;-80
2022/02/02 10:34:14;;;;;;;9.80;5.50;;;;;;;20.15;29.86;99962.49;102224;1331;61372;-78
2022/02/02 10:36:40;;;;;;;16.60;6.20;;;;;;;20.17;30.00;99962.84;101900;1331;61288;-79
2022/02/02 10:39:11;;;;;;;17.80;6.80;;;;;;;20.19;29.91;99956.77;102076;1328;61380;-78
2022/02/02 10:41:58;;;;;;;15.20;6.40;;;;;;;20.21;29.81;99949.47;102220;1328;74708;-78
2022/02/02 10:44:36;;;;;;;18.40;6.40;;;;;;;20.22;29.82;99952.29;102269;1319;61556;-81
2022/02/02 10:47:16;;;;;;;10.80;5.90;;;;;;;20.24;29.75;99954.05;103207;1313;61144;-78
2022/02/02 10:50:15;;;;;;;;;;;;;;;;;;;;;
2022/02/02 10:52:55;;;;;;;13.80;7.40;;;;;;;20.21;29.69;99951.67;103377;1305;74716;-79
2022/02/02 10:58:51;;;;;;;;;;;;;;;;;;;;;
2022/02/02 11:06:43;;;;;;;14.90;6.50;;;;;;;19.97;29.53;99945.70;104413;1313;60365;-78
2022/02/02 11:09:13;;;;;;;11.40;6.70;;;;;;;19.95;29.46;99945.30;103450;1313;61195;-79
2022/02/02 11:11:46;;;;;;;11.00;6.90;;;;;;;19.92;29.30;99943.02;103359;1314;72757;-78
2022/02/02 11:14:36;;;;;;;12.20;7.30;;;;;;;19.90;29.26;99938.96;103333;1313;74001;-81
2022/02/02 11:17:10;;;;;;;15.50;7.30;;;;;;;19.83;29.09;99941.45;103365;1313;61633;-78
2022/02/02 11:19:37;;;;;;;11.50;7.00;;;;;;;19.79;29.09;99943.34;103514;1314;61292;-78
2022/02/02 11:22:30;;;;;;;9.90;7.10;;;;;;;19.78;28.95;99940.02;104521;1316;73900;-78
2022/02/02 11:25:16;;;;;;;14.50;7.20;;;;;;;19.78;29.04;99933.27;103674;1313;75872;-79
2022/02/02 11:27:56;;;;;;;13.50;6.40;;;;;;;19.81;28.92;99923.96;103507;1313;62947;-80
2022/02/02 11:30:27;;;;;;;15.30;6.10;;;;;;;19.85;29.07;99922.41;103346;1313;61152;-79
2022/02/02 11:32:58;;;;;;;11.70;5.80;;;;;;;19.89;29.09;99919.89;103464;1313;72817;-81
2022/02/02 11:35:44;;;;;;;15.00;6.20;;;;;;;19.95;29.22;99917.64;103669;1314;77703;-79
2022/02/02 11:38:32;;;;;;;15.90;5.50;;;;;;;19.99;29.41;99916.23;103695;1305;61492;-78
2022/02/02 11:41:38;;;;;;;13.70;5.20;;;;;;;20.05;29.61;99911.84;103795;1305;61848;-78
2022/02/02 11:44:19;;;;;;;18.50;5.50;;;;;;;20.10;29.58;99910.03;103315;1313;72915;-79
2022/02/02 11:47:08;;;;;;;15.00;5.70;;;;;;;20.13;29.69;99905.69;104728;1313;74898;-78
2022/02/02 11:49:58;;;;;;;13.40;5.60;;;;;;;20.16;29.73;99899.55;104456;1313;60462;-79
2022/02/02 11:52:33;;;;;;;13.70;6.70;;;;;;;20.17;29.72;99899.66;104673;1313;61609;-78
2022/02/02 11:54:59;;;;;;;10.70;7.40;;;;;;;20.06;29.54;99904.80;104693;1313;72750;-80
2022/02/02 11:57:33;;;;;;;13.00;6.90;;;;;;;19.93;29.36;99904.59;104612;1313;59701;-79
2022/02/02 12:00:16;;;;;;;14.00;7.20;;;;;;;19.86;29.45;99896.20;104404;1313;62106;-79
2022/02/02 12:05:49;;;;;;;13.50;7.40;;;;;;;19.85;29.56;99888.60;104525;1313;72984;-79
2022/02/02 12:08:40;;;;;;;10.60;7.30;;;;;;;19.83;29.71;99888.44;103538;1313;75741;-80
2022/02/02 12:59:22;;;;;;;14.40;7.50;;;;;;;19.63;29.74;99902.47;102139;1328;61217;-78
2022/02/02 13:02:33;;;;;;;14.40;8.10;;;;;;;19.61;29.77;99906.95;102091;1332;61551;-79
2022/02/02 13:05:01;;;;;;;13.80;8.10;;;;;;;19.58;29.69;99904.09;101830;1337;73854;-78
2022/02/02 13:08:06;;;;;;;11.40;7.90;;;;;;;19.57;29.52;99903.45;101303;1337;75815;-79
2022/02/02 13:10:33;;;;;;;13.00;7.50;;;;;;;19.55;29.38;99903.09;101242;1337;61254;-80
2022/02/02 13:13:29;;;;;;;14.50;8.80;;;;;;;19.53;29.35;99902.71;101216;1337;61371;-78
2022/02/02 13:16:21;;;;;;;12.20;8.50;;;;;;;19.52;29.26;99908.84;101029;1342;73100;-81
2022/02/02 13:18:50;;;;;;;14.00;8.60;;;;;;;19.51;29.20;99903.59;102575;1343;74707;-78
2022/02/02 13:21:33;;;;;;;14.30;8.50;;;;;;;19.50;29.08;99902.21;102439;1343;61816;-78
2022/02/02 13:24:19;;;;;;;11.10;7.00;;;;;;;19.51;29.12;99901.33;102652;1337;61761;-78
2022/02/02 13:27:06;;;;;;;16.40;7.80;;;;;;;19.49;29.10;99898.35;102706;1335;73863;-79
2022/02/02 13:29:48;;;;;;;11.80;8.20;;;;;;;19.50;29.13;99898.84;102233;1334;75885;-78
2022/02/02 13:32:38;;;;;;;11.60;8.70;;;;;;;19.50;28.93;99889.40;101816;1329;62047;-78
2022/02/02 13:38:33;;;;;;;10.70;7.40;;;;;;;19.54;28.84;99888.58;102190;1322;72593;-80
2022/02/02 13:45:34;;;;;;;;;;;;;;;;;;;;;
2022/02/02 13:51:56;;;;;;;11.20;8.20;;;;;;;19.60;28.95;99894.88;101508;1337;73916;-79
2022/02/02 13:54:54;;;;;;;10.80;7.80;;;;;;;19.59;28.67;99894.96;101910;1331;74316;-79
2022/02/02 13:58:01;;;;;;;11.20;7.30;;;;;;;19.59;28.75;99894.55;102094;1331;61266;-79
2022/02/02 14:34:35;;;;;;;12.50;6.50;;;;;;;19.94;30.19;99886.45;103010;1323;73657;-82
2022/02/02 14:37:34;;;;;;;;;;;;;;;;;;;;;
2022/02/02 14:47:33;;;;;;;10.70;6.10;;;;;;;20.02;30.77;99880.10;101784;1340;74853;-84
2022/02/02 14:50:33;;;;;;;9.30;6.40;;;;;;;20.04;30.82;99874.42;101815;1340;61441;-79
2022/02/02 15:24:54;;;;;;;10.70;6.50;;;;;;;20.17;31.64;99892.64;103021;1323;71510;-81
2022/02/02 15:27:44;;;;;;;;;;;;;;;;;;;;;
2022/02/02 15:30:58;;;;;;;;;;;;;;;;;;;;;
2022/02/02 15:33:48;;;;;;;10.80;6.10;;;;;;;20.20;31.62;99888.83;102474;1332;61357;-83
2022/02/02 15:40:57;;;;;;;10.00;5.90;;;;;;;20.20;31.73;99891.13;102059;1335;76307;-80
2022/02/02 15:58:34;;;;;;;10.40;6.40;;;;;;;20.24;31.87;99905.27;102248;1331;61326;-82
2022/02/02 16:04:38;;;;;;;9.50;5.90;;;;;;;20.24;31.84;99910.63;102246;1329;74234;-85
2022/02/02 16:08:06;;;;;;;9.70;6.40;;;;;;;20.25;31.86;99910.23;103484;1316;73789;-84
2022/02/02 16:11:19;;;;;;;9.90;5.60;;;;;;;20.25;31.93;99912.56;104097;1316;61461;-85
2022/02/02 16:14:29;;;;;;;10.10;6.00;;;;;;;20.26;31.93;99911.23;103217;1322;61301;-84
2022/02/02 16:37:49;;;;;;;10.20;5.50;;;;;;;20.25;32.00;99904.50;102548;1328;61176;-84
2022/02/02 16:40:53;;;;;;;9.40;5.90;;;;;;;20.26;32.09;99911.02;102759;1328;61877;-85
2022/02/02 16:43:56;;;;;;;8.80;5.90;;;;;;;20.26;32.09;99917.45;102752;1326;73851;-84
2022/02/02 16:47:06;;;;;;;8.90;6.00;;;;;;;20.27;32.06;99920.08;102729;1326;74873;-82
2022/02/02 16:50:00;;;;;;;12.10;6.70;;;;;;;20.26;32.16;99913.86;102739;1326;61532;-80
2022/02/02 16:52:52;;;;;;;10.00;6.40;;;;;;;20.27;32.07;99914.52;103059;1322;61675;-82
2022/02/02 16:56:19;;;;;;;8.40;6.00;;;;;;;20.27;32.17;99910.96;102929;1325;72638;-85
2022/02/02 17:28:33;;;;;;;;;;;;;;;;;;;;;
2022/02/02 17:33:30;;;;;;;;;;;;;;;20.28;32.29;99956.98;101773;1338;61243;-84
2022/02/02 17:37:29;;;;;;;10.00;6.70;;;;;;;20.26;32.32;99958.01;102120;1332;72746;-88
2022/02/02 17:40:25;;;;;;;;;;;;;;;;;;;;;
2022/02/02 17:45:29;;;;;;;9.50;6.50;;;;;;;20.27;32.30;99962.04;102205;1335;61633;-82
2022/02/02 18:18:44;;;;;;;12.50;7.90;;;;;;;20.30;32.38;99968.09;100563;1357;73041;-87
2022/02/02 18:21:44;;;;;;;15.10;8.80;;;;;;;20.30;32.44;99973.41;100997;1354;75898;-81
2022/02/02 18:25:03;;;;;;;12.80;8.00;;;;;;;20.31;32.38;99971.06;101052;1354;61237;-81
2022/02/02 18:28:12;;;;;;;11.10;7.00;;;;;;;20.31;32.58;99967.31;100501;1358;61549;-84
2022/02/02 18:31:20;;;;;;;13.40;8.00;;;;;;;20.31;32.50;99966.05;100473;1358;74041;-85
2022/02/02 18:47:10;;;;;;;13.80;8.40;;;;;;;20.32;32.53;99974.33;101656;1340;75215;-85
2022/02/02 18:56:57;;;;;;;;;;;;;;;;;;;;;
2022/02/02 19:07:08;;;;;;;13.70;8.80;;;;;;;20.33;32.56;99999.64;102287;1331;61533;-86
2022/02/02 19:37:36;;;;;;;12.60;8.60;;;;;;;20.31;32.58;100011.02;101562;1345;71464;-83
2022/02/02 20:04:45;;;;;;;15.70;9.50;;;;;;;20.31;32.67;100004.61;101529;1347;71520;-78
2022/02/02 20:08:18;;;;;;;13.50;9.20;;;;;;;20.31;32.59;100004.61;101723;1340;75782;-83
2022/02/02 20:11:45;;;;;;;12.10;8.20;;;;;;;20.32;32.67;100004.39;102135;1331;61297;-86
2022/02/02 20:14:35;;;;;;;14.20;9.10;;;;;;;20.32;32.71;100003.69;102436;1329;61346;-84
2022/02/02 20:17:42;;;;;;;15.80;9.50;;;;;;;20.32;32.76;99997.95;102712;1329;73910;-80
2022/02/02 20:20:42;;;;;;;14.20;8.90;;;;;;;20.33;32.75;99998.41;102509;1328;75975;-82
2022/02/02 20:23:48;;;;;;;15.10;9.10;;;;;;;20.33;32.59;99996.77;102282;1333;61157;-82
2022/02/02 20:26:40;;;;;;;15.90;8.70;;;;;;;20.33;32.63;100008.56;102450;1332;61259;-84
2022/02/02 20:29:55;;;;;;;15.00;8.50;;;;;;;20.34;32.66;100015.67;102326;1332;71766;-84
2022/02/02 20:32:47;;;;;;;12.50;8.30;;;;;;;20.34;32.64;100017.98;102384;1332;74870;-85
2022/02/02 20:36:14;;;;;;;14.80;8.90;;;;;;;20.33;32.76;100018.35;102399;1332;61233;-80
2022/02/02 20:39:11;;;;;;;;;;;;;;;;;;;;;
2022/02/02 20:42:26;;;;;;;;;;;;;;;;;;;;;
2022/02/02 21:06:16;;;;;;;11.90;7.90;;;;;;;20.33;32.69;100005.40;102177;1332;61187;-84
2022/02/02 21:16:36;;;;;;;12.00;7.90;;;;;;;20.34;32.78;100020.45;101708;1340;61347;-81
2022/02/02 21:19:28;;;;;;;14.40;8.50;;;;;;;20.34;32.77;100027.92;101505;1346;61229;-85
2022/02/02 21:23:31;;;;;;;14.00;8.20;;;;;;;20.35;32.77;100038.05;101597;1346;70662;-82
2022/02/02 21:26:46;;;;;;;;;;;;;;;;;;;;;
2022/02/02 21:29:41;;;;;;;;;;;;;;;;;;;;;
2022/02/02 21:32:48;;;;;;;13.30;7.80;;;;;;;20.36;32.84;100049.23;101621;1343;61274;-85
2022/02/02 21:35:51;;;;;;;15.40;8.80;;;;;;;20.36;32.68;100044.95;101610;1346;73342;-88
2022/02/02 21:39:05;;;;;;;12.70;8.40;;;;;;;20.37;32.84;100043.82;101648;1340;74803;-86
2022/02/02 21:42:07;;;;;;;14.60;8.40;;;;;;;20.37;32.80;100042.35;101849;1340;61373;-82
2022/02/02 21:45:13;;;;;;;13.30;8.30;;;;;;;20.38;32.73;100040.70;101698;1345;61327;-85
2022/02/02 21:48:33;;;;;;;11.50;8.00;;;;;;;20.38;32.66;100042.70;101447;1349;71752;-82
2022/02/02 21:54:36;;;;;;;;;;;;;;;;;;;;;
2022/02/02 21:57:32;;;;;;;;;;;;;;;;;;;;;
2022/02/02 22:01:00;;;;;;;13.40;8.60;;;;;;;20.38;32.78;100079.12;102513;1331;71586;-82
2022/02/02 22:06:58;;;;;;;12.00;8.60;;;;;;;20.36;32.76;100078.20;102309;1334;61246;-86
2022/02/02 22:09:59;;;;;;;11.80;8.10;;;;;;;20.37;32.76;100070.80;102199;1333;61709;-82
2022/02/02 22:13:08;;;;;;;;;;;;;;;;;;;;;
2022/02/02 22:16:25;;;;;;;12.60;8.60;;;;;;;20.37;32.79;100064.55;98755;1337;4431850;-81
2022/02/02 22:19:38;;;;;;;14.00;9.00;;;;;;;20.37;32.73;100062.89;101732;1340;61507;-84
2022/02/02 22:22:56;;;;;;;13.40;8.20;;;;;;;20.38;32.76;100064.15;101708;1342;60622;-84
2022/02/02 22:26:03;;;;;;;11.00;8.40;;;;;;;20.37;32.79;100067.18;101858;1339;72948;-85
2022/02/02 22:28:52;;;;;;;14.00;9.30;;;;;;;20.38;32.72;100071.63;102212;1333;75117;-83
2022/02/02 22:31:39;;;;;;;13.40;9.50;;;;;;;20.38;32.77;100071.80;102383;1334;62130;-83
2022/02/02 22:35:05;;;;;;;14.40;9.70;;;;;;;20.38;32.72;100071.44;102341;1333;61237;-86
2022/02/02 22:38:29;;;;;;;15.70;9.50;;;;;;;20.38;32.69;100075.33;102367;1332;74014;-89
2022/02/02 22:41:20;;;;;;;15.00;9.30;;;;;;;20.39;32.73;100080.50;102275;1334;74998;-86
2022/02/02 22:44:16;;;;;;;13.70;9.20;;;;;;;20.38;32.73;100083.90;102575;1328;61409;-87
2022/02/02 22:47:28;;;;;;;12.30;9.10;;;;;;;20.39;32.75;100083.54;102677;1328;61215;-84
2022/02/02 22:50:39;;;;;;;15.00;9.30;;;;;;;20.39;32.77;100082.98;103002;1322;74024;-86
2022/02/02 22:53:45;;;;;;;14.80;9.70;;;;;;;20.38;32.77;100088.04;102984;1325;74890;-84
2022/02/02 22:56:42;;;;;;;;;;;;;;;;;;;;;
2022/02/02 23:00:01;;;;;;;14.50;9.20;;;;;;;20.39;32.78;100097.81;103972;1314;61378;-86
2022/02/02 23:06:09;;;;;;;14.20;9.20;;;;;;;20.38;32.70;100102.51;102903;1325;74782;-87
2022/02/02 23:08:59;;;;;;;12.40;9.50;;;;;;;20.39;32.72;100100.29;102892;1326;62065;-89
2022/02/02 23:12:35;;;;;;;14.00;9.50;;;;;;;20.39;32.78;100100.80;102060;1337;61350;-83
2022/02/02 23:15:52;;;;;;;14.50;9.20;;;;;;;20.39;32.70;100108.18;101668;1347;70632;-85
2022/02/02 23:18:57;;;;;;;13.20;9.50;;;;;;;20.39;32.71;100111.18;101378;1353;74623;-87
2022/02/02 23:21:32;;;;;;;12.40;8.90;;;;;;;20.39;32.66;100115.66;101451;1350;61542;-82
2022/02/02 23:24:28;;;;;;;14.90;9.80;;;;;;;20.40;32.77;100119.20;101233;1352;61307;-81
2022/02/02 23:27:28;;;;;;;14.00;10.10;;;;;;;20.40;32.78;100125.77;101386;1352;74241;-82
2022/02/02 23:30:44;;;;;;;13.20;9.50;;;;;;;20.39;32.72;100128.02;101458;1349;73805;-84
2022/02/02 23:33:44;;;;;;;14.10;9.50;;;;;;;20.39;32.75;100133.70;101558;1350;61397;-82
2022/02/02 23:36:56;;;;;;;13.50;9.20;;;;;;;20.40;32.82;100137.07;101530;1350;61944;-85
2022/02/02 23:39:50;;;;;;;14.50;9.70;;;;;;;20.39;32.73;100147.98;101106;1352;74070;-85
2022/02/02 23:43:05;;;;;;;13.60;9.40;;;;;;;20.39;32.86;100157.29;100998;1349;72608;-79
2022/02/02 23:46:17;;;;;;;13.80;9.70;;;;;;;20.39;32.77;100162.09;101284;1352;61423;-82
2022/02/02 23:49:35;;;;;;;13.50;9.30;;;;;;;20.40;32.75;100166.16;101556;1340;61648;-84
2022/02/02 23:52:53;;;;;;;13.90;9.40;;;;;;;20.40;32.78;100169.40;101657;1343;72939;-85
2022/02/02 23:55:54;;;;;;;13.70;9.90;;;;;;;20.39;32.70;100171.40;101835;1337;74983;-87
2022/02/02 23:59:19;;;;;;;13.20;9.30;;;;;;;20.40;32.77;100179.23;101962;1337;61436;-88
